createdAt,value
2023-05-01T00:01:14.020Z,55.00
2023-05-01T00:03:18.041Z,55.10
2023-05-01T00:05:19.686Z,55.10
2023-05-01T00:07:21.590Z,55.10
2023-05-01T00:09:23.247Z,55.10
2023-05-01T00:11:24.914Z,55.20
2023-05-01T00:13:26.823Z,55.00
2023-05-01T00:15:28.634Z,55.20
2023-05-01T00:17:30.958Z,55.20
2023-05-01T00:19:32.800Z,55.20
2023-05-01T00:21:34.458Z,55.20
2023-05-01T00:23:36.208Z,55.20
2023-05-01T00:25:38.920Z,55.20
2023-05-01T00:27:40.539Z,55.30
2023-05-01T00:29:42.553Z,55.40
2023-05-01T00:31:45.508Z,55.40
2023-05-01T00:33:47.390Z,55.30
2023-05-01T00:35:49.179Z,55.30
2023-05-01T00:37:51.004Z,55.30
2023-05-01T00:39:52.702Z,55.30
2023-05-01T00:41:54.924Z,55.40
2023-05-01T00:43:56.866Z,55.40
2023-05-01T00:45:58.565Z,55.40
2023-05-01T00:48:00.526Z,55.40
2023-05-01T00:50:03.332Z,55.30
2023-05-01T00:52:04.991Z,55.40
2023-05-01T00:54:06.820Z,55.40
2023-05-01T00:56:09.730Z,55.50
2023-05-01T00:58:12.185Z,55.60
2023-05-01T01:00:14.224Z,55.50
2023-05-01T01:02:16.004Z,55.60
2023-05-01T01:04:17.842Z,55.60
2023-05-01T01:06:19.566Z,55.60
2023-05-01T01:08:29.154Z,55.60
2023-05-01T01:10:46.877Z,55.50
2023-05-01T01:13:01.726Z,55.60
2023-05-01T01:15:27.117Z,55.60
2023-05-01T01:17:32.088Z,55.70
2023-05-01T01:19:49.212Z,55.60
2023-05-01T01:21:54.556Z,55.60
2023-05-01T01:24:05.281Z,55.70
2023-05-01T01:26:09.821Z,55.60
2023-05-01T01:28:29.780Z,55.60
2023-05-01T01:30:35.353Z,55.50
2023-05-01T01:32:55.649Z,55.50
2023-05-01T01:35:04.790Z,55.40
2023-05-01T01:37:11.813Z,55.60
2023-05-01T01:39:30.463Z,55.60
2023-05-01T01:41:33.668Z,55.70
2023-05-01T01:43:39.620Z,55.70
2023-05-01T01:45:42.893Z,55.70
2023-05-01T01:47:45.324Z,55.80
2023-05-01T01:49:49.545Z,55.60
2023-05-01T01:51:52.882Z,55.60
2023-05-01T01:53:56.121Z,55.50
2023-05-01T01:55:59.991Z,55.70
2023-05-01T01:58:04.037Z,55.60
2023-05-01T02:00:08.915Z,55.60
2023-05-01T02:02:17.012Z,55.50
2023-05-01T02:04:19.379Z,55.60
2023-05-01T02:06:21.814Z,55.70
2023-05-01T02:08:24.433Z,55.70
2023-05-01T02:10:27.624Z,55.70
2023-05-01T02:12:29.402Z,55.80
2023-05-01T02:14:31.717Z,55.70
2023-05-01T02:16:33.739Z,55.80
2023-05-01T02:18:35.937Z,55.80
2023-05-01T02:20:37.658Z,55.90
2023-05-01T02:22:42.485Z,55.70
2023-05-01T02:24:44.915Z,55.70
2023-05-01T02:26:49.662Z,55.80
2023-05-01T02:28:51.285Z,55.80
2023-05-01T02:30:53.093Z,55.90
2023-05-01T02:32:56.237Z,55.90
2023-05-01T02:34:58.035Z,55.90
2023-05-01T02:37:00.432Z,55.90
2023-05-01T02:39:02.304Z,55.90
2023-05-01T02:41:04.185Z,55.90
2023-05-01T02:43:08.930Z,56.00
2023-05-01T02:45:17.695Z,55.90
2023-05-01T02:47:20.343Z,56.00
2023-05-01T02:49:22.232Z,56.00
2023-05-01T02:51:24.733Z,55.90
2023-05-01T02:53:26.912Z,56.00
2023-05-01T02:55:35.847Z,56.00
2023-05-01T02:57:37.650Z,56.10
2023-05-01T02:59:40.988Z,56.00
2023-05-01T03:01:42.730Z,56.00
2023-05-01T03:03:44.638Z,56.00
2023-05-01T03:05:47.538Z,56.10
2023-05-01T03:07:49.197Z,56.10
2023-05-01T03:09:51.026Z,56.10
2023-05-01T03:11:52.693Z,56.10
2023-05-01T03:13:54.344Z,56.10
2023-05-01T03:15:55.985Z,56.10
2023-05-01T03:17:57.701Z,56.80
2023-05-01T03:19:59.351Z,56.10
2023-05-01T03:22:01.121Z,56.20
2023-05-01T03:24:03.225Z,56.20
2023-05-01T03:26:07.698Z,56.20
2023-05-01T03:28:10.123Z,56.30
2023-05-01T03:30:13.005Z,56.40
2023-05-01T03:32:17.782Z,56.40
2023-05-01T03:34:20.978Z,56.40
2023-05-01T03:36:23.346Z,56.40
2023-05-01T03:38:27.166Z,57.10
2023-05-01T03:40:44.292Z,56.40
2023-05-01T03:43:04.372Z,56.50
2023-05-01T03:45:06.233Z,56.50
2023-05-01T03:47:07.896Z,56.50
2023-05-01T03:49:14.231Z,56.50
2023-05-01T03:51:21.319Z,56.50
2023-05-01T03:53:23.821Z,56.60
2023-05-01T03:55:25.835Z,56.50
2023-05-01T03:57:27.602Z,56.60
2023-05-01T03:59:29.256Z,56.70
2023-05-01T04:01:33.576Z,56.70
2023-05-01T04:03:35.281Z,56.70
2023-05-01T04:05:37.285Z,56.80
2023-05-01T04:07:39.106Z,56.80
2023-05-01T04:09:41.870Z,56.80
2023-05-01T04:11:44.195Z,56.90
2023-05-01T04:13:45.853Z,56.80
2023-05-01T04:15:47.666Z,56.80
2023-05-01T04:17:49.941Z,56.80
2023-05-01T04:19:52.516Z,56.80
2023-05-01T04:21:55.013Z,56.80
2023-05-01T04:23:56.860Z,56.90
2023-05-01T04:25:58.559Z,56.80
2023-05-01T04:28:00.217Z,56.90
2023-05-01T04:30:01.892Z,56.90
2023-05-01T04:32:04.824Z,56.90
2023-05-01T04:34:06.777Z,57.00
2023-05-01T04:36:10.792Z,56.90
2023-05-01T04:38:12.514Z,57.10
2023-05-01T04:40:16.216Z,57.10
2023-05-01T04:42:18.053Z,57.10
2023-05-01T04:44:19.788Z,57.10
2023-05-01T04:46:22.017Z,57.20
2023-05-01T04:48:23.859Z,57.30
2023-05-01T04:50:25.776Z,57.20
2023-05-01T04:52:27.831Z,57.30
2023-05-01T04:54:33.455Z,57.30
2023-05-01T04:56:35.078Z,57.30
2023-05-01T04:58:36.723Z,57.30
2023-05-01T05:00:44.811Z,57.30
2023-05-01T05:02:53.792Z,57.40
2023-05-01T05:04:56.343Z,57.50
2023-05-01T05:06:58.314Z,57.50
2023-05-01T05:09:08.976Z,57.60
2023-05-01T05:11:10.931Z,57.60
2023-05-01T05:13:20.955Z,57.60
2023-05-01T05:15:29.594Z,57.70
2023-05-01T05:17:31.460Z,57.80
2023-05-01T05:19:34.504Z,57.70
2023-05-01T05:21:36.624Z,57.70
2023-05-01T05:23:38.844Z,57.80
2023-05-01T05:25:41.410Z,57.80
2023-05-01T05:27:43.534Z,57.80
2023-05-01T05:29:45.305Z,57.70
2023-05-01T05:31:47.378Z,57.70
2023-05-01T05:33:49.572Z,57.70
2023-05-01T05:35:52.359Z,57.70
2023-05-01T05:37:57.312Z,57.70
2023-05-01T05:39:59.696Z,57.50
2023-05-01T05:42:03.634Z,58.20
2023-05-01T05:44:05.439Z,57.50
2023-05-01T05:46:07.350Z,57.40
2023-05-01T05:48:10.964Z,57.40
2023-05-01T05:50:15.900Z,57.20
2023-05-01T05:52:19.568Z,57.40
2023-05-01T05:54:21.670Z,57.50
2023-05-01T05:56:24.395Z,57.30
2023-05-01T05:58:26.515Z,57.30
2023-05-01T06:00:28.364Z,57.40
2023-05-01T06:02:32.021Z,57.10
2023-05-01T06:04:35.253Z,57.00
2023-05-01T06:06:37.493Z,57.10
2023-05-01T06:08:39.736Z,57.10
2023-05-01T06:10:45.043Z,57.20
2023-05-01T06:12:53.565Z,57.10
2023-05-01T06:14:59.966Z,57.10
2023-05-01T06:17:02.701Z,57.00
2023-05-01T06:19:04.553Z,56.80
2023-05-01T06:21:06.541Z,56.90
2023-05-01T06:23:09.955Z,56.60
2023-05-01T06:25:20.201Z,56.50
2023-05-01T06:27:21.924Z,56.50
2023-05-01T06:29:23.628Z,56.40
2023-05-01T06:31:25.291Z,56.40
2023-05-01T06:33:31.021Z,56.40
2023-05-01T06:35:49.845Z,56.40
2023-05-01T06:37:51.540Z,56.20
2023-05-01T06:39:53.340Z,56.10
2023-05-01T06:41:55.030Z,56.30
2023-05-01T06:44:05.839Z,56.40
2023-05-01T06:46:07.432Z,56.40
2023-05-01T06:48:09.290Z,56.90
2023-05-01T06:50:11.131Z,56.20
2023-05-01T06:52:12.862Z,56.10
2023-05-01T06:54:14.575Z,56.00
2023-05-01T06:56:16.162Z,56.00
2023-05-01T06:58:24.136Z,55.70
2023-05-01T07:00:26.225Z,55.90
2023-05-01T07:02:28.284Z,55.80
2023-05-01T07:04:31.408Z,55.90
2023-05-01T07:06:33.149Z,55.80
2023-05-01T07:08:34.806Z,55.90
2023-05-01T07:10:36.521Z,55.70
2023-05-01T07:12:38.186Z,55.60
2023-05-01T07:14:41.407Z,55.60
2023-05-01T07:16:43.178Z,55.80
2023-05-01T07:18:44.850Z,55.80
2023-05-01T07:20:46.945Z,55.70
2023-05-01T07:22:48.586Z,55.60
2023-05-01T07:24:50.271Z,55.80
2023-05-01T07:26:52.339Z,55.80
2023-05-01T07:28:53.984Z,55.80
2023-05-01T07:30:55.745Z,55.60
2023-05-01T07:32:58.099Z,55.50
2023-05-01T07:34:59.922Z,55.30
2023-05-01T07:37:01.818Z,55.40
2023-05-01T07:39:04.268Z,55.40
2023-05-01T07:41:06.217Z,55.40
2023-05-01T07:43:11.157Z,55.40
2023-05-01T07:45:13.832Z,55.40
2023-05-01T07:47:15.461Z,55.40
2023-05-01T07:49:17.196Z,55.60
2023-05-01T07:51:19.019Z,55.70
2023-05-01T07:53:22.555Z,55.60
2023-05-01T07:55:24.689Z,55.70
2023-05-01T07:57:26.890Z,55.70
2023-05-01T08:00:16.203Z,55.80
2023-05-01T08:02:21.471Z,55.70
2023-05-01T08:04:52.254Z,55.60
2023-05-01T08:07:38.461Z,55.60
2023-05-01T08:09:40.129Z,56.10
2023-05-01T08:11:41.885Z,55.40
2023-05-01T08:13:43.573Z,55.40
2023-05-01T08:15:48.636Z,55.40
2023-05-01T08:17:51.425Z,55.40
2023-05-01T08:19:56.581Z,55.60
2023-05-01T08:21:59.585Z,55.80
2023-05-01T08:24:04.224Z,55.10
2023-05-01T08:26:06.013Z,55.10
2023-05-01T08:28:07.804Z,55.00
2023-05-01T08:30:09.671Z,55.00
2023-05-01T08:32:11.447Z,55.00
2023-05-01T08:34:13.151Z,54.80
2023-05-01T08:36:14.813Z,54.80
2023-05-01T08:38:16.884Z,55.00
2023-05-01T08:40:18.703Z,55.70
2023-05-01T08:42:20.412Z,54.70
2023-05-01T08:44:24.566Z,54.50
2023-05-01T08:46:30.444Z,54.60
2023-05-01T08:48:32.477Z,54.50
2023-05-01T08:50:35.764Z,54.70
2023-05-01T08:52:40.189Z,54.50
2023-05-01T08:54:42.954Z,54.40
2023-05-01T08:56:46.508Z,54.60
2023-05-01T08:58:49.224Z,54.70
2023-05-01T09:00:51.161Z,54.80
2023-05-01T09:02:53.007Z,54.80
2023-05-01T09:04:54.767Z,54.90
2023-05-01T09:06:56.567Z,54.80
2023-05-01T09:08:59.135Z,54.70
2023-05-01T09:11:01.501Z,54.90
2023-05-01T09:13:03.930Z,54.90
2023-05-01T09:15:07.383Z,54.70
2023-05-01T09:17:09.496Z,54.70
2023-05-01T09:19:11.220Z,54.60
2023-05-01T09:21:13.440Z,54.70
2023-05-01T09:23:15.219Z,54.80
2023-05-01T09:25:17.710Z,54.70
2023-05-01T09:27:44.355Z,54.60
2023-05-01T09:30:20.214Z,54.60
2023-05-01T09:32:28.444Z,54.70
2023-05-01T09:35:03.080Z,54.70
2023-05-01T09:37:17.120Z,54.60
2023-05-01T09:39:33.408Z,54.60
2023-05-01T09:41:50.995Z,54.30
2023-05-01T09:43:55.728Z,54.10
2023-05-01T09:46:09.628Z,54.10
2023-05-01T09:48:12.095Z,54.20
2023-05-01T09:50:30.299Z,54.40
2023-05-01T09:52:33.868Z,54.40
2023-05-01T09:54:36.747Z,54.30
2023-05-01T09:56:47.736Z,54.20
2023-05-01T09:58:56.985Z,54.30
2023-05-01T10:01:02.125Z,54.40
2023-05-01T10:03:13.030Z,54.30
2023-05-01T10:05:15.313Z,54.20
2023-05-01T10:07:19.301Z,54.20
2023-05-01T10:09:28.071Z,54.40
2023-05-01T10:11:29.977Z,54.30
2023-05-01T10:13:32.108Z,54.20
2023-05-01T10:15:37.098Z,54.30
2023-05-01T10:17:39.642Z,54.20
2023-05-01T10:19:41.524Z,54.10
2023-05-01T10:21:46.093Z,54.00
2023-05-01T10:23:47.821Z,54.10
2023-05-01T10:25:49.888Z,54.10
2023-05-01T10:27:53.545Z,54.20
2023-05-01T10:29:55.601Z,54.10
2023-05-01T10:31:57.855Z,54.20
2023-05-01T10:34:02.607Z,54.20
2023-05-01T10:36:07.500Z,54.20
2023-05-01T10:38:11.586Z,54.10
2023-05-01T10:40:32.156Z,54.20
2023-05-01T10:42:33.937Z,54.20
2023-05-01T10:44:35.770Z,54.20
2023-05-01T10:46:37.482Z,54.20
2023-05-01T10:48:45.081Z,54.10
2023-05-01T10:51:07.248Z,53.60
2023-05-01T10:53:11.781Z,54.00
2023-05-01T10:55:31.928Z,54.10
2023-05-01T10:57:44.313Z,54.30
2023-05-01T11:00:04.982Z,54.10
2023-05-01T11:02:21.531Z,54.20
2023-05-01T11:04:30.451Z,54.10
2023-05-01T11:06:33.014Z,54.00
2023-05-01T11:08:36.482Z,53.90
2023-05-01T11:10:38.142Z,53.80
2023-05-01T11:12:46.068Z,53.80
2023-05-01T11:15:05.262Z,53.90
2023-05-01T11:17:06.885Z,53.90
2023-05-01T11:19:10.045Z,53.80
2023-05-01T11:21:11.766Z,53.70
2023-05-01T11:23:16.939Z,53.70
2023-05-01T11:25:18.772Z,53.70
2023-05-01T11:27:21.026Z,53.40
2023-05-01T11:29:23.792Z,53.60
2023-05-01T11:31:29.181Z,53.20
2023-05-01T11:33:30.904Z,53.20
2023-05-01T11:35:32.914Z,53.10
2023-05-01T11:37:41.545Z,53.00
2023-05-01T11:39:53.200Z,53.00
2023-05-01T11:42:07.732Z,53.20
2023-05-01T11:44:11.584Z,53.30
2023-05-01T11:46:13.681Z,53.50
2023-05-01T11:48:18.456Z,52.90
2023-05-01T11:50:21.976Z,53.30
2023-05-01T11:52:23.784Z,53.50
2023-05-01T11:54:26.365Z,53.10
2023-05-01T11:56:28.335Z,53.10
2023-05-01T11:58:31.845Z,53.10
2023-05-01T12:00:36.945Z,53.20
2023-05-01T12:02:38.772Z,53.80
2023-05-01T12:04:40.612Z,53.20
2023-05-01T12:06:46.314Z,53.40
2023-05-01T12:08:51.010Z,53.30
2023-05-01T12:10:53.865Z,53.40
2023-05-01T12:12:55.694Z,53.40
2023-05-01T12:14:57.546Z,53.30
2023-05-01T12:16:59.795Z,53.50
2023-05-01T12:19:01.817Z,53.30
2023-05-01T12:21:03.569Z,53.40
2023-05-01T12:23:06.096Z,53.30
2023-05-01T12:25:08.425Z,53.30
2023-05-01T12:27:10.502Z,53.10
2023-05-01T12:29:12.343Z,53.30
2023-05-01T12:31:15.128Z,53.20
2023-05-01T12:33:17.906Z,53.10
2023-05-01T12:35:19.784Z,52.90
2023-05-01T12:37:22.108Z,52.80
2023-05-01T12:39:23.791Z,52.60
2023-05-01T12:41:40.720Z,52.00
2023-05-01T12:43:44.222Z,52.40
2023-05-01T12:45:47.867Z,52.00
2023-05-01T12:47:49.827Z,51.90
2023-05-01T12:50:01.280Z,51.90
2023-05-01T12:52:03.733Z,50.70
2023-05-01T12:54:05.433Z,50.70
2023-05-01T12:56:07.672Z,51.20
2023-05-01T12:58:09.495Z,50.80
2023-05-01T13:00:11.555Z,51.00
2023-05-01T13:02:15.786Z,51.00
2023-05-01T13:04:21.882Z,50.70
2023-05-01T13:06:32.392Z,50.60
2023-05-01T13:08:39.632Z,50.90
2023-05-01T13:10:41.894Z,50.90
2023-05-01T13:12:44.603Z,50.80
2023-05-01T13:14:46.349Z,50.50
2023-05-01T13:16:48.387Z,50.20
2023-05-01T13:18:51.126Z,50.20
2023-05-01T13:20:52.812Z,49.90
2023-05-01T13:22:54.597Z,50.00
2023-05-01T13:24:56.785Z,50.20
2023-05-01T13:27:03.619Z,50.10
2023-05-01T13:29:07.218Z,50.20
2023-05-01T13:31:10.920Z,50.10
2023-05-01T13:33:13.084Z,50.30
2023-05-01T13:35:24.932Z,50.30
2023-05-01T13:37:27.248Z,50.60
2023-05-01T13:39:29.324Z,50.30
2023-05-01T13:41:31.059Z,51.50
2023-05-01T13:43:34.154Z,51.00
2023-05-01T13:45:36.315Z,50.80
2023-05-01T13:47:40.434Z,50.70
2023-05-01T13:49:42.593Z,50.80
2023-05-01T13:51:44.891Z,50.80
2023-05-01T13:53:46.597Z,51.20
2023-05-01T13:55:48.212Z,51.30
2023-05-01T13:57:49.906Z,50.90
2023-05-01T13:59:51.569Z,51.30
2023-05-01T14:01:53.272Z,51.30
2023-05-01T14:03:57.265Z,51.30
2023-05-01T14:05:59.123Z,50.90
2023-05-01T14:08:02.104Z,50.80
2023-05-01T14:10:04.292Z,50.80
2023-05-01T14:12:06.034Z,50.80
2023-05-01T14:14:07.817Z,50.70
2023-05-01T14:16:10.911Z,50.70
2023-05-01T14:18:15.041Z,51.00
2023-05-01T14:20:17.119Z,50.70
2023-05-01T14:22:18.803Z,50.90
2023-05-01T14:24:20.822Z,51.20
2023-05-01T14:26:24.813Z,50.60
2023-05-01T14:28:26.496Z,50.00
2023-05-01T14:30:29.663Z,50.20
2023-05-01T14:32:36.342Z,50.30
2023-05-01T14:34:41.255Z,50.30
2023-05-01T14:36:43.534Z,50.20
2023-05-01T14:38:49.196Z,50.10
2023-05-01T14:40:51.281Z,50.00
2023-05-01T14:42:53.656Z,49.70
2023-05-01T14:44:55.359Z,49.70
2023-05-01T14:46:58.711Z,49.80
2023-05-01T14:49:01.358Z,50.10
2023-05-01T14:51:09.797Z,50.20
2023-05-01T14:53:11.895Z,50.00
2023-05-01T14:55:14.258Z,49.70
2023-05-01T14:57:16.127Z,49.30
2023-05-01T14:59:17.826Z,49.60
2023-05-01T15:01:19.799Z,49.60
2023-05-01T15:03:21.919Z,49.30
2023-05-01T15:05:25.999Z,49.30
2023-05-01T15:07:27.839Z,49.40
2023-05-01T15:09:29.646Z,49.40
2023-05-01T15:11:31.578Z,49.50
2023-05-01T15:13:33.326Z,49.10
2023-05-01T15:15:35.096Z,49.30
2023-05-01T15:17:36.880Z,49.10
2023-05-01T15:19:38.586Z,49.20
2023-05-01T15:21:40.337Z,49.60
2023-05-01T15:23:45.277Z,49.30
2023-05-01T15:25:47.823Z,48.80
2023-05-01T15:27:50.433Z,49.00
2023-05-01T15:29:52.259Z,48.80
2023-05-01T15:32:04.508Z,48.90
2023-05-01T15:34:19.114Z,48.70
2023-05-01T15:36:21.055Z,48.60
2023-05-01T15:38:22.874Z,48.30
2023-05-01T15:40:24.652Z,47.90
2023-05-01T15:42:26.632Z,48.10
2023-05-01T15:44:28.758Z,47.90
2023-05-01T15:46:30.564Z,47.80
2023-05-01T15:48:33.635Z,48.20
2023-05-01T15:50:35.408Z,47.70
2023-05-01T15:52:37.465Z,47.60
2023-05-01T15:54:39.242Z,47.70
2023-05-01T15:56:40.972Z,48.20
2023-05-01T15:58:42.685Z,47.60
2023-05-01T16:00:48.928Z,47.70
2023-05-01T16:02:52.048Z,47.80
2023-05-01T16:04:54.115Z,47.70
2023-05-01T16:06:56.025Z,47.70
2023-05-01T16:08:58.248Z,47.90
2023-05-01T16:11:00.087Z,47.80
2023-05-01T16:13:04.381Z,48.00
2023-05-01T16:15:06.387Z,48.10
2023-05-01T16:17:08.425Z,48.00
2023-05-01T16:19:12.649Z,47.90
2023-05-01T16:21:19.121Z,48.20
2023-05-01T16:23:22.152Z,48.10
2023-05-01T16:25:23.907Z,47.80
2023-05-01T16:27:25.691Z,47.90
2023-05-01T16:29:27.514Z,47.80
2023-05-01T16:31:33.266Z,48.00
2023-05-01T16:33:35.843Z,48.10
2023-05-01T16:35:38.243Z,48.00
2023-05-01T16:37:40.015Z,48.00
2023-05-01T16:39:41.837Z,48.20
2023-05-01T16:41:45.356Z,47.80
2023-05-01T16:43:47.228Z,47.80
2023-05-01T16:45:49.239Z,47.80
2023-05-01T16:47:51.528Z,47.60
2023-05-01T16:49:58.550Z,47.60
2023-05-01T16:52:03.267Z,47.40
2023-05-01T16:54:05.973Z,47.50
2023-05-01T16:56:09.091Z,47.50
2023-05-01T16:58:11.109Z,47.50
2023-05-01T17:00:14.096Z,47.50
2023-05-01T17:02:16.307Z,47.10
2023-05-01T17:04:18.197Z,46.60
2023-05-01T17:06:20.169Z,46.90
2023-05-01T17:08:21.999Z,47.10
2023-05-01T17:10:23.903Z,47.30
2023-05-01T17:12:27.721Z,47.40
2023-05-01T17:14:30.502Z,47.40
2023-05-01T17:16:33.657Z,47.40
2023-05-01T17:18:35.921Z,47.80
2023-05-01T17:20:37.785Z,47.70
2023-05-01T17:22:39.549Z,47.90
2023-05-01T17:24:41.613Z,48.00
2023-05-01T17:26:43.486Z,48.20
2023-05-01T17:28:47.196Z,48.20
2023-05-01T17:30:49.026Z,48.10
2023-05-01T17:32:51.307Z,48.40
2023-05-01T17:34:53.177Z,48.60
2023-05-01T17:36:56.524Z,48.50
2023-05-01T17:39:01.466Z,48.60
2023-05-01T17:41:03.424Z,48.80
2023-05-01T17:43:05.292Z,48.70
2023-05-01T17:45:07.767Z,48.70
2023-05-01T17:47:09.969Z,48.90
2023-05-01T17:49:11.777Z,49.00
2023-05-01T17:51:14.133Z,49.00
2023-05-01T17:53:15.970Z,49.10
2023-05-01T17:55:18.414Z,49.40
2023-05-01T17:57:20.822Z,49.50
2023-05-01T17:59:22.672Z,49.40
2023-05-01T18:01:24.663Z,49.30
2023-05-01T18:03:26.660Z,49.40
2023-05-01T18:05:28.670Z,49.40
2023-05-01T18:07:30.888Z,49.60
2023-05-01T18:09:32.786Z,49.60
2023-05-01T18:11:34.681Z,49.60
2023-05-01T18:13:39.916Z,49.70
2023-05-01T18:15:41.949Z,49.80
2023-05-01T18:17:43.890Z,50.00
2023-05-01T18:19:45.793Z,50.10
2023-05-01T18:21:47.634Z,50.20
2023-05-01T18:23:49.667Z,50.30
2023-05-01T18:25:51.847Z,50.40
2023-05-01T18:27:55.273Z,50.50
2023-05-01T18:29:57.484Z,50.60
2023-05-01T18:31:59.577Z,50.80
2023-05-01T18:34:01.866Z,50.90
2023-05-01T18:36:04.233Z,50.90
2023-05-01T18:38:06.285Z,50.90
2023-05-01T18:40:08.650Z,51.00
2023-05-01T18:42:10.636Z,51.20
2023-05-01T18:44:12.499Z,51.10
2023-05-01T18:46:14.600Z,51.20
2023-05-01T18:48:16.555Z,51.30
2023-05-01T18:50:21.862Z,51.30
2023-05-01T18:52:25.764Z,51.40
2023-05-01T18:54:37.971Z,51.60
2023-05-01T18:56:44.761Z,51.60
2023-05-01T18:58:46.902Z,51.70
2023-05-01T19:00:49.049Z,51.90
2023-05-01T19:02:52.932Z,52.00
2023-05-01T19:04:57.916Z,52.00
2023-05-01T19:07:00.135Z,52.20
2023-05-01T19:09:02.010Z,52.30
2023-05-01T19:11:05.754Z,52.20
2023-05-01T19:13:07.771Z,52.30
2023-05-01T19:15:13.136Z,52.40
2023-05-01T19:17:15.021Z,52.70
2023-05-01T19:19:18.396Z,52.60
2023-05-01T19:21:24.016Z,52.70
2023-05-01T19:23:27.405Z,52.90
2023-05-01T19:25:30.066Z,52.80
2023-05-01T19:27:31.982Z,53.20
2023-05-01T19:29:34.160Z,53.00
2023-05-01T19:31:36.290Z,53.00
2023-05-01T19:33:38.296Z,53.20
2023-05-01T19:35:44.033Z,53.40
2023-05-01T19:37:47.237Z,53.30
2023-05-01T19:39:50.297Z,53.40
2023-05-01T19:41:54.794Z,53.60
2023-05-01T19:43:59.948Z,53.60
2023-05-01T19:46:01.871Z,53.60
2023-05-01T19:48:04.009Z,53.50
2023-05-01T19:50:06.726Z,53.50
2023-05-01T19:52:09.095Z,53.60
2023-05-01T19:54:11.019Z,53.60
2023-05-01T19:56:14.397Z,53.80
2023-05-01T19:58:22.964Z,53.80
2023-05-01T20:00:28.906Z,53.90
2023-05-01T20:02:33.554Z,53.90
2023-05-01T20:04:36.193Z,54.10
2023-05-01T20:06:38.124Z,54.00
2023-05-01T20:08:40.882Z,53.90
2023-05-01T20:10:42.878Z,54.20
2023-05-01T20:12:44.717Z,53.90
2023-05-01T20:14:46.728Z,54.20
2023-05-01T20:16:50.551Z,54.10
2023-05-01T20:18:52.456Z,54.00
2023-05-01T20:20:54.355Z,54.80
2023-05-01T20:23:08.984Z,54.10
2023-05-01T20:25:11.555Z,54.30
2023-05-01T20:27:13.823Z,54.10
2023-05-01T20:29:19.341Z,54.10
2023-05-01T20:31:21.426Z,54.50
2023-05-01T20:33:23.516Z,54.40
2023-05-01T20:35:25.493Z,54.40
2023-05-01T20:37:27.335Z,54.60
2023-05-01T20:39:29.255Z,54.50
2023-05-01T20:41:31.065Z,54.40
2023-05-01T20:43:33.093Z,54.50
2023-05-01T20:45:35.155Z,54.70
2023-05-01T20:47:37.234Z,54.70
2023-05-01T20:49:42.046Z,54.60
2023-05-01T20:51:43.915Z,54.70
2023-05-01T20:53:47.373Z,55.00
2023-05-01T20:55:49.985Z,54.90
2023-05-01T20:57:51.901Z,54.70
2023-05-01T20:59:53.753Z,55.00
2023-05-01T21:01:55.700Z,55.00
2023-05-01T21:03:58.533Z,55.10
2023-05-01T21:06:01.181Z,54.90
2023-05-01T21:08:03.200Z,54.90
2023-05-01T21:10:16.492Z,55.00
2023-05-01T21:12:18.292Z,55.00
2023-05-01T21:14:20.172Z,55.00
2023-05-01T21:16:22.288Z,55.10
2023-05-01T21:18:24.198Z,55.30
2023-05-01T21:20:34.015Z,55.10
2023-05-01T21:22:36.875Z,55.30
2023-05-01T21:24:39.795Z,55.40
2023-05-01T21:26:41.595Z,55.30
2023-05-01T21:28:43.625Z,55.40
2023-05-01T21:30:45.475Z,55.50
2023-05-01T21:32:47.517Z,55.40
2023-05-01T21:34:52.178Z,55.40
2023-05-01T21:36:53.974Z,55.40
2023-05-01T21:38:55.848Z,55.50
2023-05-01T21:40:57.702Z,55.50
2023-05-01T21:43:00.102Z,55.40
2023-05-01T21:45:09.019Z,55.60
2023-05-01T21:47:11.184Z,55.60
2023-05-01T21:49:13.484Z,55.70
2023-05-01T21:51:15.285Z,55.70
2023-05-01T21:53:17.118Z,55.80
2023-05-01T21:55:19.896Z,55.90
2023-05-01T21:57:21.682Z,56.00
2023-05-01T21:59:23.547Z,56.00
2023-05-01T22:01:25.748Z,56.00
2023-05-01T22:03:27.754Z,56.00
2023-05-01T22:05:31.026Z,56.20
2023-05-01T22:07:32.943Z,56.20
2023-05-01T22:09:34.680Z,56.30
2023-05-01T22:11:36.495Z,56.10
2023-05-01T22:13:38.225Z,56.10
2023-05-01T22:15:40.030Z,56.20
2023-05-01T22:17:41.849Z,56.20
2023-05-01T22:19:44.528Z,56.20
2023-05-01T22:21:46.324Z,56.20
2023-05-01T22:23:48.084Z,56.30
2023-05-01T22:25:49.890Z,56.20
2023-05-01T22:27:51.639Z,56.20
2023-05-01T22:29:53.411Z,56.20
2023-05-01T22:31:55.065Z,56.00
2023-05-01T22:33:56.787Z,56.10
2023-05-01T22:35:58.537Z,56.10
2023-05-01T22:38:00.355Z,56.10
2023-05-01T22:40:02.327Z,56.10
2023-05-01T22:42:05.033Z,56.40
2023-05-01T22:44:07.402Z,56.30
2023-05-01T22:46:09.176Z,56.30
2023-05-01T22:48:10.968Z,56.30
2023-05-01T22:50:12.736Z,56.30
2023-05-01T22:52:15.108Z,56.30
2023-05-01T22:54:16.824Z,56.30
2023-05-01T22:56:18.560Z,56.40
2023-05-01T22:58:20.410Z,56.30
2023-05-01T23:00:23.376Z,56.20
2023-05-01T23:02:25.171Z,56.40
2023-05-01T23:04:26.940Z,56.40
2023-05-01T23:06:28.778Z,56.40
2023-05-01T23:08:30.530Z,56.50
2023-05-01T23:10:33.777Z,56.70
2023-05-01T23:12:39.833Z,56.80
2023-05-01T23:14:44.821Z,56.70
2023-05-01T23:16:46.540Z,56.60
2023-05-01T23:18:48.224Z,56.80
2023-05-01T23:20:50.524Z,56.70
2023-05-01T23:22:52.214Z,56.90
2023-05-01T23:24:53.908Z,56.90
2023-05-01T23:26:55.520Z,56.70
2023-05-01T23:28:57.339Z,56.70
2023-05-01T23:31:00.620Z,56.90
2023-05-01T23:33:02.471Z,56.80
2023-05-01T23:35:14.740Z,56.80
2023-05-01T23:37:16.439Z,56.70
2023-05-01T23:39:18.365Z,56.80
2023-05-01T23:41:20.094Z,56.90
2023-05-01T23:43:22.201Z,56.80
2023-05-01T23:45:23.845Z,56.70
2023-05-01T23:47:25.729Z,56.70
2023-05-01T23:49:27.665Z,56.70
2023-05-01T23:51:29.738Z,56.80
2023-05-01T23:53:31.495Z,56.80
2023-05-01T23:55:38.260Z,56.90
2023-05-01T23:57:39.932Z,56.90
2023-05-01T23:59:41.640Z,57.20
